createdAt,value
2015-02-23T00:00:08.163Z,100189
2015-02-23T00:00:21.303Z,100186
2015-02-23T00:00:34.381Z,100196
2015-02-23T00:00:47.557Z,100183
2015-02-23T00:01:00.712Z,100192
2015-02-23T00:01:13.943Z,100183
2015-02-23T00:01:27.062Z,100192
2015-02-23T00:01:40.195Z,100192
2015-02-23T00:01:53.512Z,100183
2015-02-23T00:02:06.701Z,100189
2015-02-23T00:02:19.853Z,100196
2015-02-23T00:02:33.088Z,100199
2015-02-23T00:02:46.246Z,100174
2015-02-23T00:02:59.333Z,100183
2015-02-23T00:03:12.545Z,100183
2015-02-23T00:03:25.673Z,100183
2015-02-23T00:03:38.844Z,100186
2015-02-23T00:03:52.025Z,100186
2015-02-23T00:04:05.123Z,100186
2015-02-23T00:04:18.406Z,100174
2015-02-23T00:04:31.652Z,100183
2015-02-23T00:04:44.718Z,100180
2015-02-23T00:04:57.910Z,100189
2015-02-23T00:05:11.096Z,100168
2015-02-23T00:05:24.182Z,100186
2015-02-23T00:05:37.402Z,100186
2015-02-23T00:05:50.630Z,100180
2015-02-23T00:06:03.713Z,100186
2015-02-23T00:06:16.858Z,100180
2015-02-23T00:06:30.171Z,100174
2015-02-23T00:06:43.297Z,100171
2015-02-23T00:06:56.436Z,100180
2015-02-23T00:07:09.664Z,100171
2015-02-23T00:07:22.796Z,100186
2015-02-23T00:07:35.860Z,100186
2015-02-23T00:07:49.086Z,100177
2015-02-23T00:08:02.248Z,100171
2015-02-23T00:08:15.347Z,100177
2015-02-23T00:08:28.555Z,100177
2015-02-23T00:08:41.774Z,100168
2015-02-23T00:08:54.897Z,100183
2015-02-23T00:09:08.116Z,100177
2015-02-23T00:09:21.246Z,100171
2015-02-23T00:09:34.519Z,100165
2015-02-23T00:09:47.705Z,100180
2015-02-23T00:10:00.836Z,100174
2015-02-23T00:10:14.086Z,100171
2015-02-23T00:10:27.292Z,100165
2015-02-23T00:10:40.357Z,100174
2015-02-23T00:10:53.480Z,100171
2015-02-23T00:11:06.735Z,100174
2015-02-23T00:11:19.820Z,100171
2015-02-23T00:11:32.952Z,100168
2015-02-23T00:11:46.192Z,100171
2015-02-23T00:11:59.311Z,100177
2015-02-23T00:12:12.572Z,100177
2015-02-23T00:12:25.638Z,100174
2015-02-23T00:12:38.811Z,100180
2015-02-23T00:12:52.026Z,100171
2015-02-23T00:13:05.125Z,100174
2015-02-23T00:13:18.228Z,100180
2015-02-23T00:13:31.484Z,100168
2015-02-23T00:13:44.640Z,100180
2015-02-23T00:13:57.785Z,100171
2015-02-23T00:14:11.059Z,100174
2015-02-23T00:14:24.179Z,100168
2015-02-23T00:14:37.286Z,100171
2015-02-23T00:14:50.492Z,100168
2015-02-23T00:15:03.622Z,100174
2015-02-23T00:15:16.860Z,100174
2015-02-23T00:15:29.976Z,100168
2015-02-23T00:15:43.080Z,100159
2015-02-23T00:15:56.350Z,100165
2015-02-23T00:16:09.575Z,100168
2015-02-23T00:16:22.748Z,100165
2015-02-23T00:16:35.976Z,100171
2015-02-23T00:16:49.136Z,100159
2015-02-23T00:17:02.192Z,100159
2015-02-23T00:17:18.570Z,100162
2015-02-23T00:17:31.785Z,100165
2015-02-23T00:17:44.915Z,100171
2015-02-23T00:17:58.044Z,100147
2015-02-23T00:18:11.134Z,100159
2015-02-23T00:18:24.373Z,100168
2015-02-23T00:18:37.524Z,100156
2015-02-23T00:18:50.614Z,100165
2015-02-23T00:19:03.799Z,100156
2015-02-23T00:19:16.990Z,100144
2015-02-23T00:19:30.043Z,100156
2015-02-23T00:19:43.233Z,100162
2015-02-23T00:19:56.459Z,100162
2015-02-23T00:20:09.491Z,100162
2015-02-23T00:20:22.602Z,100150
2015-02-23T00:20:35.794Z,100153
2015-02-23T00:20:49.014Z,100156
2015-02-23T00:21:02.209Z,100159
2015-02-23T00:21:15.334Z,100156
2015-02-23T00:21:28.509Z,100156
2015-02-23T00:21:41.766Z,100150
2015-02-23T00:21:54.884Z,100147
2015-02-23T00:22:08.006Z,100144
2015-02-23T00:22:21.234Z,100159
2015-02-23T00:22:34.339Z,100150
2015-02-23T00:22:47.465Z,100144
2015-02-23T00:23:00.710Z,100141
2015-02-23T00:23:13.952Z,100150
2015-02-23T00:23:27.795Z,100144
2015-02-23T00:23:40.851Z,100141
2015-02-23T00:23:54.017Z,100153
2015-02-23T00:24:07.247Z,100150
2015-02-23T00:24:20.358Z,100144
2015-02-23T00:24:33.482Z,100150
2015-02-23T00:24:46.737Z,100153
2015-02-23T00:24:59.889Z,100141
2015-02-23T00:25:12.978Z,100150
2015-02-23T00:25:26.214Z,100153
2015-02-23T00:25:39.362Z,100156
2015-02-23T00:25:52.432Z,100159
2015-02-23T00:26:05.615Z,100159
2015-02-23T00:26:18.758Z,100147
2015-02-23T00:26:32.028Z,100159
2015-02-23T00:26:45.205Z,100150
2015-02-23T00:26:58.280Z,100156
2015-02-23T00:27:11.454Z,100168
2015-02-23T00:27:24.605Z,100147
2015-02-23T00:27:37.658Z,100144
2015-02-23T00:27:50.783Z,100150
2015-02-23T00:28:03.974Z,100147
2015-02-23T00:28:17.032Z,100156
2015-02-23T00:28:30.251Z,100147
2015-02-23T00:28:43.502Z,100149
2015-02-23T00:28:56.591Z,100144
2015-02-23T00:29:09.742Z,100149
2015-02-23T00:29:22.974Z,100138
2015-02-23T00:29:36.073Z,100141
2015-02-23T00:29:49.168Z,100156
2015-02-23T00:30:02.431Z,100129
2015-02-23T00:30:15.555Z,100141
2015-02-23T00:30:28.651Z,100150
2015-02-23T00:30:41.916Z,100135
2015-02-23T00:30:55.127Z,100141
2015-02-23T00:31:08.206Z,100144
2015-02-23T00:31:21.474Z,100144
2015-02-23T00:31:34.668Z,100141
2015-02-23T00:31:47.792Z,100144
2015-02-23T00:32:00.959Z,100138
2015-02-23T00:32:14.051Z,100147
2015-02-23T00:32:27.271Z,100144
2015-02-23T00:32:40.453Z,100138
2015-02-23T00:32:53.549Z,100144
2015-02-23T00:33:06.794Z,100156
2015-02-23T00:33:19.992Z,100149
2015-02-23T00:33:33.060Z,100153
2015-02-23T00:33:46.226Z,100153
2015-02-23T00:33:59.497Z,100153
2015-02-23T00:34:13.232Z,100162
2015-02-23T00:34:26.389Z,100156
2015-02-23T00:34:39.532Z,100147
2015-02-23T00:34:52.747Z,100149
2015-02-23T00:35:05.953Z,100144
2015-02-23T00:35:19.026Z,100149
2015-02-23T00:35:32.212Z,100141
2015-02-23T00:35:45.447Z,100153
2015-02-23T00:35:58.567Z,100144
2015-02-23T00:36:11.789Z,100132
2015-02-23T00:36:25.067Z,100135
2015-02-23T00:36:38.182Z,100135
2015-02-23T00:36:51.322Z,100144
2015-02-23T00:37:04.610Z,100135
2015-02-23T00:37:17.743Z,100132
2015-02-23T00:37:30.949Z,100141
2015-02-23T00:37:44.027Z,100141
2015-02-23T00:37:57.162Z,100138
2015-02-23T00:38:10.437Z,100147
2015-02-23T00:38:23.542Z,100141
2015-02-23T00:38:36.642Z,100138
2015-02-23T00:38:49.927Z,100129
2015-02-23T00:39:03.100Z,100138
2015-02-23T00:39:16.190Z,100138
2015-02-23T00:39:29.457Z,100141
2015-02-23T00:39:42.670Z,100144
2015-02-23T00:39:55.801Z,100141
2015-02-23T00:40:09.031Z,100144
2015-02-23T00:40:22.234Z,100144
2015-02-23T00:40:35.324Z,100141
2015-02-23T00:40:48.576Z,100144
2015-02-23T00:41:01.814Z,100144
2015-02-23T00:41:14.911Z,100147
2015-02-23T00:41:28.734Z,100144
2015-02-23T00:41:42.014Z,100149
2015-02-23T00:41:55.114Z,100147
2015-02-23T00:42:08.241Z,100138
2015-02-23T00:42:21.480Z,100152
2015-02-23T00:42:34.603Z,100147
2015-02-23T00:42:47.697Z,100141
2015-02-23T00:43:00.908Z,100144
2015-02-23T00:43:14.039Z,100138
2015-02-23T00:43:27.305Z,100138
2015-02-23T00:43:40.426Z,100144
2015-02-23T00:43:53.539Z,100126
2015-02-23T00:44:06.803Z,100126
2015-02-23T00:44:19.937Z,100132
2015-02-23T00:44:33.022Z,100132
2015-02-23T00:44:46.271Z,100129
2015-02-23T00:44:59.441Z,100135
2015-02-23T00:45:12.517Z,100126
2015-02-23T00:45:25.731Z,100114
2015-02-23T00:45:38.951Z,100123
2015-02-23T00:45:52.109Z,100117
2015-02-23T00:46:05.278Z,100120
2015-02-23T00:46:18.394Z,100117
2015-02-23T00:46:31.649Z,100126
2015-02-23T00:46:44.834Z,100126
2015-02-23T00:46:57.902Z,100114
2015-02-23T00:47:11.162Z,100117
2015-02-23T00:47:24.762Z,100117
2015-02-23T00:47:38.117Z,100123
2015-02-23T00:47:51.290Z,100111
2015-02-23T00:48:04.575Z,100102
2015-02-23T00:48:17.671Z,100114
2015-02-23T00:48:30.826Z,100117
2015-02-23T00:48:43.980Z,100117
2015-02-23T00:48:57.217Z,100108
2015-02-23T00:49:10.434Z,100117
2015-02-23T00:49:23.484Z,100114
2015-02-23T00:49:36.633Z,100117
2015-02-23T00:49:49.853Z,100108
2015-02-23T00:50:02.849Z,100111
2015-02-23T00:50:15.974Z,100105
2015-02-23T00:50:29.221Z,100117
2015-02-23T00:50:42.314Z,100114
2015-02-23T00:50:55.474Z,100111
2015-02-23T00:51:08.721Z,100111
2015-02-23T00:51:21.888Z,100105
2015-02-23T00:51:34.949Z,100102
2015-02-23T00:51:48.153Z,100102
2015-02-23T00:52:01.350Z,100114
2015-02-23T00:52:14.416Z,100086
2015-02-23T00:52:27.609Z,100089
2015-02-23T00:52:40.783Z,100108
2015-02-23T00:52:53.843Z,100105
2015-02-23T00:53:07.007Z,100108
2015-02-23T00:53:20.292Z,100111
2015-02-23T00:53:33.390Z,100108
2015-02-23T00:53:46.535Z,100105
2015-02-23T00:53:59.749Z,100099
2015-02-23T00:54:12.795Z,100099
2015-02-23T00:54:25.994Z,100092
2015-02-23T00:54:38.997Z,100086
2015-02-23T00:54:52.162Z,100095
2015-02-23T00:55:05.431Z,100086
2015-02-23T00:55:18.535Z,100092
2015-02-23T00:55:31.675Z,100083
2015-02-23T00:55:44.937Z,100086
2015-02-23T00:55:58.085Z,100089
2015-02-23T00:56:11.192Z,100089
2015-02-23T00:56:24.446Z,100095
2015-02-23T00:56:37.560Z,100089
2015-02-23T00:56:50.629Z,100086
2015-02-23T00:57:03.855Z,100083
2015-02-23T00:57:17.002Z,100095
2015-02-23T00:57:30.245Z,100083
2015-02-23T00:57:43.369Z,100080
2015-02-23T00:57:56.494Z,100080
2015-02-23T00:58:09.834Z,100077
2015-02-23T00:58:23.005Z,100077
2015-02-23T00:58:36.082Z,100066
2015-02-23T00:58:49.375Z,100077
2015-02-23T00:59:02.544Z,100086
2015-02-23T00:59:15.657Z,100074
2015-02-23T00:59:28.875Z,100083
2015-02-23T00:59:42.066Z,100086
2015-02-23T00:59:55.238Z,100077
2015-02-23T01:00:08.404Z,100069
2015-02-23T01:00:21.493Z,100069
2015-02-23T01:00:34.744Z,100077
2015-02-23T01:00:47.964Z,100074
2015-02-23T01:01:01.032Z,100074
2015-02-23T01:01:14.232Z,100083
2015-02-23T01:01:27.367Z,100063
2015-02-23T01:01:40.433Z,100063
2015-02-23T01:01:53.577Z,100069
2015-02-23T01:02:06.812Z,100060
2015-02-23T01:02:19.882Z,100063
2015-02-23T01:02:33.059Z,100066
2015-02-23T01:02:46.195Z,100063
2015-02-23T01:02:59.433Z,100080
2015-02-23T01:03:12.671Z,100069
2015-02-23T01:03:25.743Z,100063
2015-02-23T01:03:38.917Z,100051
2015-02-23T01:03:52.171Z,100057
2015-02-23T01:04:05.269Z,100066
2015-02-23T01:04:18.415Z,100063
2015-02-23T01:04:31.655Z,100069
2015-02-23T01:04:44.773Z,100051
2015-02-23T01:04:57.888Z,100069
2015-02-23T01:05:11.176Z,100054
2015-02-23T01:05:24.346Z,100066
2015-02-23T01:05:37.576Z,100060
2015-02-23T01:05:50.687Z,100057
2015-02-23T01:06:03.870Z,100060
2015-02-23T01:06:17.106Z,100057
2015-02-23T01:06:30.176Z,100054
2015-02-23T01:06:43.288Z,100066
2015-02-23T01:06:56.517Z,100057
2015-02-23T01:07:09.638Z,100045
2015-02-23T01:07:22.748Z,100057
2015-02-23T01:07:36.015Z,100051
2015-02-23T01:07:49.200Z,100042
2015-02-23T01:08:02.282Z,100045
2015-02-23T01:08:15.485Z,100039
2015-02-23T01:08:28.621Z,100051
2015-02-23T01:08:41.836Z,100054
2015-02-23T01:08:54.970Z,100048
2015-02-23T01:09:08.024Z,100039
2015-02-23T01:09:21.242Z,100048
2015-02-23T01:09:34.403Z,100048
2015-02-23T01:09:47.471Z,100045
2015-02-23T01:10:00.735Z,100051
2015-02-23T01:10:14.000Z,100035
2015-02-23T01:10:27.008Z,100042
2015-02-23T01:10:40.167Z,100023
2015-02-23T01:10:53.471Z,100048
2015-02-23T01:11:06.574Z,100039
2015-02-23T01:11:19.751Z,100039
2015-02-23T01:11:32.838Z,100035
2015-02-23T01:11:46.622Z,100032
2015-02-23T01:12:00.079Z,100039
2015-02-23T01:12:13.206Z,100035
2015-02-23T01:12:26.431Z,100032
2015-02-23T01:12:39.680Z,100039
2015-02-23T01:12:52.737Z,100035
2015-02-23T01:13:05.830Z,100032
2015-02-23T01:13:19.064Z,100035
2015-02-23T01:13:32.150Z,100035
2015-02-23T01:13:45.294Z,100048
2015-02-23T01:13:58.511Z,100054
2015-02-23T01:14:11.648Z,100035
2015-02-23T01:14:24.742Z,100029
2015-02-23T01:14:37.982Z,100026
2015-02-23T01:14:51.132Z,100020
2015-02-23T01:15:04.192Z,100029
2015-02-23T01:15:17.400Z,100032
2015-02-23T01:15:30.583Z,100026
2015-02-23T01:15:43.645Z,100026
2015-02-23T01:15:56.901Z,100026
2015-02-23T01:16:10.156Z,100029
2015-02-23T01:16:23.236Z,100032
2015-02-23T01:16:36.372Z,100029
2015-02-23T01:16:49.509Z,100029
2015-02-23T01:17:02.725Z,100020
2015-02-23T01:17:16.067Z,100032
2015-02-23T01:17:29.249Z,100017
2015-02-23T01:17:42.398Z,100035
2015-02-23T01:17:55.624Z,100014
2015-02-23T01:18:08.702Z,100026
2015-02-23T01:18:21.869Z,100017
2015-02-23T01:18:35.088Z,100014
2015-02-23T01:18:48.215Z,100032
2015-02-23T01:19:01.328Z,100032
2015-02-23T01:19:14.638Z,100020
2015-02-23T01:19:27.814Z,100035
2015-02-23T01:19:41.012Z,100026
2015-02-23T01:19:54.058Z,100011
2015-02-23T01:20:07.273Z,100023
2015-02-23T01:20:20.507Z,100020
2015-02-23T01:20:33.609Z,100020
2015-02-23T01:20:46.728Z,100023
2015-02-23T01:21:00.026Z,100017
2015-02-23T01:21:13.175Z,100032
2015-02-23T01:21:26.313Z,100035
2015-02-23T01:21:39.574Z,100020
2015-02-23T01:21:52.741Z,100011
2015-02-23T01:22:05.804Z,100032
2015-02-23T01:22:18.995Z,100017
2015-02-23T01:22:32.082Z,100017
2015-02-23T01:22:45.323Z,100023
2015-02-23T01:22:58.482Z,100023
2015-02-23T01:23:11.579Z,100008
2015-02-23T01:23:24.840Z,100014
2015-02-23T01:23:38.038Z,100017
2015-02-23T01:23:51.123Z,100020
2015-02-23T01:24:04.375Z,100014
2015-02-23T01:24:17.584Z,100020
2015-02-23T01:24:30.668Z,100014
2015-02-23T01:24:43.851Z,100011
2015-02-23T01:24:57.065Z,100026
2015-02-23T01:25:10.173Z,100020
2015-02-23T01:25:23.363Z,100008
2015-02-23T01:25:36.430Z,100014
2015-02-23T01:25:49.688Z,100014
2015-02-23T01:26:02.975Z,100020
2015-02-23T01:26:16.085Z,100005
2015-02-23T01:26:29.266Z,100017
2015-02-23T01:26:42.503Z,100011
2015-02-23T01:26:55.570Z,100023
2015-02-23T01:27:08.716Z,100011
2015-02-23T01:27:21.986Z,100014
2015-02-23T01:27:35.087Z,100008
2015-02-23T01:27:48.141Z,100008
2015-02-23T01:28:01.270Z,100020
2015-02-23T01:28:15.173Z,100017
2015-02-23T01:28:28.431Z,100008
2015-02-23T01:28:41.514Z,99999
2015-02-23T01:28:54.631Z,99996
2015-02-23T01:29:07.848Z,100005
2015-02-23T01:29:20.966Z,100008
2015-02-23T01:29:34.065Z,100002
2015-02-23T01:29:47.290Z,100011
2015-02-23T01:30:00.381Z,99999
2015-02-23T01:30:13.499Z,100014
2015-02-23T01:30:26.776Z,99999
2015-02-23T01:30:39.947Z,100005
2015-02-23T01:30:53.140Z,100014
2015-02-23T01:31:06.266Z,99993
2015-02-23T01:31:19.397Z,100005
2015-02-23T01:31:32.624Z,100011
2015-02-23T01:31:45.748Z,100002
2015-02-23T01:31:58.829Z,100002
2015-02-23T01:32:12.053Z,100005
2015-02-23T01:32:25.199Z,100005
2015-02-23T01:32:38.237Z,99999
2015-02-23T01:32:51.421Z,99993
2015-02-23T01:33:04.657Z,100011
2015-02-23T01:33:17.679Z,99999
2015-02-23T01:33:30.820Z,100011
2015-02-23T01:33:43.894Z,99999
2015-02-23T01:33:57.076Z,99999
2015-02-23T01:34:10.246Z,100002
2015-02-23T01:34:23.342Z,100005
2015-02-23T01:34:36.536Z,100005
2015-02-23T01:34:49.732Z,100008
2015-02-23T01:35:02.807Z,100002
2015-02-23T01:35:16.020Z,100002
2015-02-23T01:35:29.234Z,100005
2015-02-23T01:35:42.963Z,100014
2015-02-23T01:35:56.079Z,100005
2015-02-23T01:36:09.303Z,100002
2015-02-23T01:36:22.490Z,100008
2015-02-23T01:36:35.605Z,100008
2015-02-23T01:36:48.832Z,100008
2015-02-23T01:37:01.975Z,100005
2015-02-23T01:37:15.014Z,99999
2015-02-23T01:37:28.294Z,100002
2015-02-23T01:37:41.430Z,99993
2015-02-23T01:37:54.433Z,99993
2015-02-23T01:38:07.620Z,100005
2015-02-23T01:38:20.768Z,99999
2015-02-23T01:38:33.783Z,99990
2015-02-23T01:38:46.942Z,100005
2015-02-23T01:39:00.182Z,100005
2015-02-23T01:39:13.251Z,99999
2015-02-23T01:39:26.377Z,99999
2015-02-23T01:39:39.484Z,100005
2015-02-23T01:39:52.670Z,99996
2015-02-23T01:40:05.890Z,99993
2015-02-23T01:40:18.905Z,99999
2015-02-23T01:40:32.020Z,99999
2015-02-23T01:40:45.189Z,99999
2015-02-23T01:40:58.267Z,100005
2015-02-23T01:41:11.385Z,100005
2015-02-23T01:41:24.574Z,99999
2015-02-23T01:41:37.668Z,100005
2015-02-23T01:41:50.768Z,99996
2015-02-23T01:42:03.967Z,100005
2015-02-23T01:42:17.123Z,99993
2015-02-23T01:42:30.354Z,99993
2015-02-23T01:42:43.410Z,99993
2015-02-23T01:42:56.504Z,99993
2015-02-23T01:43:09.715Z,100008
2015-02-23T01:43:22.791Z,99999
2015-02-23T01:43:35.882Z,100002
2015-02-23T01:43:49.085Z,99990
2015-02-23T01:44:02.169Z,99996
2015-02-23T01:44:15.191Z,99999
2015-02-23T01:44:28.384Z,99987
2015-02-23T01:44:41.582Z,100002
2015-02-23T01:44:54.745Z,99987
2015-02-23T01:45:07.827Z,99987
2015-02-23T01:45:20.892Z,99999
2015-02-23T01:45:34.096Z,99996
2015-02-23T01:45:47.173Z,99987
2015-02-23T01:46:00.206Z,99993
2015-02-23T01:46:13.438Z,99987
2015-02-23T01:46:26.538Z,99996
2015-02-23T01:46:39.580Z,99993
2015-02-23T01:46:52.779Z,100005
2015-02-23T01:47:05.966Z,99993
2015-02-23T01:47:19.267Z,99975
2015-02-23T01:47:38.793Z,99993
2015-02-23T01:47:51.784Z,99984
2015-02-23T01:48:04.981Z,99990
2015-02-23T01:48:18.143Z,100002
2015-02-23T01:48:31.188Z,99981
2015-02-23T01:48:44.354Z,99999
2015-02-23T01:48:57.518Z,99987
2015-02-23T01:49:10.550Z,99981
2015-02-23T01:49:23.712Z,99993
2015-02-23T01:49:36.942Z,99993
2015-02-23T01:49:49.999Z,99984
2015-02-23T01:50:03.109Z,99981
2015-02-23T01:50:16.278Z,99981
2015-02-23T01:50:29.347Z,99984
2015-02-23T01:50:42.503Z,99987
2015-02-23T01:50:55.535Z,99981
2015-02-23T01:51:08.739Z,99993
2015-02-23T01:51:21.913Z,99981
2015-02-23T01:51:34.945Z,99987
2015-02-23T01:51:48.031Z,99984
2015-02-23T01:52:01.256Z,99993
2015-02-23T01:52:14.347Z,99978
2015-02-23T01:52:27.477Z,99993
2015-02-23T01:52:40.651Z,99981
2015-02-23T01:52:53.752Z,99981
2015-02-23T01:53:06.771Z,99987
2015-02-23T01:53:19.866Z,99990
2015-02-23T01:53:32.976Z,99981
2015-02-23T01:53:46.147Z,99975
2015-02-23T01:53:59.197Z,99984
2015-02-23T01:54:12.269Z,99968
2015-02-23T01:54:25.485Z,99984
2015-02-23T01:54:38.605Z,99975
2015-02-23T01:54:51.659Z,99975
2015-02-23T01:55:04.836Z,99966
2015-02-23T01:55:17.989Z,99968
2015-02-23T01:55:31.015Z,99987
2015-02-23T01:55:44.148Z,99978
2015-02-23T01:55:57.327Z,99978
2015-02-23T01:56:10.552Z,99978
2015-02-23T01:56:23.690Z,99966
2015-02-23T01:56:36.711Z,99975
2015-02-23T01:56:49.929Z,99968
2015-02-23T01:57:03.096Z,99966
2015-02-23T01:57:16.135Z,99963
2015-02-23T01:57:29.332Z,99971
2015-02-23T01:57:42.491Z,99960
2015-02-23T01:57:55.584Z,99960
2015-02-23T01:58:08.774Z,99966
2015-02-23T01:58:21.974Z,99963
2015-02-23T01:58:35.023Z,99968
2015-02-23T01:58:48.129Z,99960
2015-02-23T01:59:01.359Z,99963
2015-02-23T01:59:14.434Z,99966
2015-02-23T01:59:27.543Z,99963
2015-02-23T01:59:40.758Z,99960
2015-02-23T01:59:53.856Z,99966
2015-02-23T02:00:06.893Z,99968
2015-02-23T02:00:20.067Z,99954
2015-02-23T02:00:33.219Z,99954
2015-02-23T02:00:46.245Z,99966
2015-02-23T02:00:59.420Z,99963
2015-02-23T02:01:12.594Z,99957
2015-02-23T02:01:25.632Z,99960
2015-02-23T02:01:38.783Z,99963
2015-02-23T02:01:51.853Z,99963
2015-02-23T02:02:05.045Z,99951
2015-02-23T02:02:18.167Z,99971
2015-02-23T02:02:31.206Z,99966
2015-02-23T02:02:44.365Z,99951
2015-02-23T02:02:57.536Z,99954
2015-02-23T02:03:10.599Z,99951
2015-02-23T02:03:23.763Z,99954
2015-02-23T02:03:36.963Z,99942
2015-02-23T02:03:50.025Z,99960
2015-02-23T02:04:03.163Z,99948
2015-02-23T02:04:16.364Z,99942
2015-02-23T02:04:29.463Z,99954
2015-02-23T02:04:42.616Z,99945
2015-02-23T02:04:55.645Z,99927
2015-02-23T02:05:08.786Z,99948
2015-02-23T02:05:21.952Z,99945
2015-02-23T02:05:34.966Z,99951
2015-02-23T02:05:48.100Z,99936
2015-02-23T02:06:01.272Z,99942
2015-02-23T02:06:14.369Z,99939
2015-02-23T02:06:27.436Z,99942
2015-02-23T02:06:40.623Z,99948
2015-02-23T02:06:53.740Z,99948
2015-02-23T02:07:06.746Z,99939
2015-02-23T02:07:19.899Z,99954
2015-02-23T02:07:32.993Z,99942
2015-02-23T02:07:46.177Z,99936
2015-02-23T02:07:59.251Z,99936
2015-02-23T02:08:12.318Z,99933
2015-02-23T02:08:25.502Z,99942
2015-02-23T02:08:38.620Z,99939
2015-02-23T02:08:51.730Z,99951
2015-02-23T02:09:04.939Z,99945
2015-02-23T02:09:18.081Z,99930
2015-02-23T02:09:31.178Z,99942
2015-02-23T02:09:44.334Z,99936
2015-02-23T02:09:57.493Z,99933
2015-02-23T02:10:10.613Z,99945
2015-02-23T02:10:23.714Z,99945
2015-02-23T02:10:36.744Z,99936
2015-02-23T02:10:49.928Z,99930
2015-02-23T02:11:03.049Z,99942
2015-02-23T02:11:16.064Z,99936
2015-02-23T02:11:29.218Z,99936
2015-02-23T02:11:42.361Z,99927
2015-02-23T02:11:55.386Z,99930
2015-02-23T02:12:08.539Z,99924
2015-02-23T02:12:21.732Z,99927
2015-02-23T02:12:34.767Z,99924
2015-02-23T02:12:47.858Z,99927
2015-02-23T02:13:00.967Z,99930
2015-02-23T02:13:14.151Z,99918
2015-02-23T02:13:27.345Z,99930
2015-02-23T02:13:40.393Z,99915
2015-02-23T02:13:53.526Z,99912
2015-02-23T02:14:06.723Z,99933
2015-02-23T02:14:19.740Z,99930
2015-02-23T02:14:32.852Z,99930
2015-02-23T02:14:46.067Z,99915
2015-02-23T02:14:59.118Z,99912
2015-02-23T02:15:12.179Z,99930
2015-02-23T02:15:25.371Z,99942
2015-02-23T02:15:38.494Z,99930
2015-02-23T02:15:51.705Z,99924
2015-02-23T02:16:04.787Z,99924
2015-02-23T02:16:17.903Z,99930
2015-02-23T02:16:31.083Z,99927
2015-02-23T02:16:44.155Z,99921
2015-02-23T02:16:57.255Z,99912
2015-02-23T02:17:10.452Z,99930
2015-02-23T02:17:23.965Z,99921
2015-02-23T02:17:37.018Z,99930
2015-02-23T02:17:50.216Z,99924
2015-02-23T02:18:03.359Z,99918
2015-02-23T02:18:16.409Z,99924
2015-02-23T02:18:29.576Z,99896
2015-02-23T02:18:42.644Z,99918
2015-02-23T02:18:55.848Z,99918
2015-02-23T02:19:09.003Z,99902
2015-02-23T02:19:22.046Z,99905
2015-02-23T02:19:35.275Z,99915
2015-02-23T02:19:48.407Z,99912
2015-02-23T02:20:01.476Z,99915
2015-02-23T02:20:14.685Z,99899
2015-02-23T02:20:27.861Z,99899
2015-02-23T02:20:40.899Z,99905
2015-02-23T02:20:54.014Z,99899
2015-02-23T02:21:07.185Z,99918
2015-02-23T02:21:20.213Z,99899
2015-02-23T02:21:33.366Z,99909
2015-02-23T02:21:46.534Z,99915
2015-02-23T02:21:59.612Z,99905
2015-02-23T02:22:12.714Z,99905
2015-02-23T02:22:25.950Z,99905
2015-02-23T02:22:39.060Z,99896
2015-02-23T02:22:52.105Z,99902
2015-02-23T02:23:05.274Z,99908
2015-02-23T02:23:18.388Z,99902
2015-02-23T02:23:31.396Z,99912
2015-02-23T02:23:44.575Z,99918
2015-02-23T02:23:57.709Z,99905
2015-02-23T02:24:10.788Z,99890
2015-02-23T02:24:23.878Z,99912
2015-02-23T02:24:36.938Z,99908
2015-02-23T02:24:50.179Z,99908
2015-02-23T02:25:03.319Z,99905
2015-02-23T02:25:16.369Z,99899
2015-02-23T02:25:29.525Z,99899
2015-02-23T02:25:42.672Z,99905
2015-02-23T02:25:55.675Z,99899
2015-02-23T02:26:08.786Z,99899
2015-02-23T02:26:22.027Z,99893
2015-02-23T02:26:35.040Z,99899
2015-02-23T02:26:48.125Z,99893
2015-02-23T02:27:01.275Z,99893
2015-02-23T02:27:14.459Z,99893
2015-02-23T02:27:27.616Z,99890
2015-02-23T02:27:40.630Z,99905
2015-02-23T02:27:53.733Z,99905
2015-02-23T02:28:06.920Z,99902
2015-02-23T02:28:19.959Z,99893
2015-02-23T02:28:33.082Z,99893
2015-02-23T02:28:46.284Z,99899
2015-02-23T02:28:59.382Z,99899
2015-02-23T02:29:12.437Z,99905
2015-02-23T02:29:25.650Z,99890
2015-02-23T02:29:38.764Z,99893
2015-02-23T02:29:51.923Z,99899
2015-02-23T02:30:04.945Z,99893
2015-02-23T02:30:18.063Z,99887
2015-02-23T02:30:31.226Z,99902
2015-02-23T02:30:44.284Z,99890
2015-02-23T02:30:57.369Z,99893
2015-02-23T02:31:10.565Z,99890
2015-02-23T02:31:23.657Z,99899
2015-02-23T02:31:36.701Z,99899
2015-02-23T02:31:49.915Z,99902
2015-02-23T02:32:03.064Z,99890
2015-02-23T02:32:16.174Z,99893
2015-02-23T02:32:29.339Z,99899
2015-02-23T02:32:42.387Z,99902
2015-02-23T02:32:55.557Z,99909
2015-02-23T02:33:08.653Z,99890
2015-02-23T02:33:21.681Z,99893
2015-02-23T02:33:34.856Z,99902
2015-02-23T02:33:47.989Z,99902
2015-02-23T02:34:01.042Z,99890
2015-02-23T02:34:14.206Z,99902
2015-02-23T02:34:27.385Z,99902
2015-02-23T02:34:40.477Z,99909
2015-02-23T02:34:53.603Z,99909
2015-02-23T02:35:06.787Z,99902
2015-02-23T02:35:19.869Z,99902
2015-02-23T02:35:32.961Z,99887
2015-02-23T02:35:45.995Z,99896
2015-02-23T02:35:59.140Z,99909
2015-02-23T02:36:12.275Z,99902
2015-02-23T02:36:25.307Z,99915
2015-02-23T02:36:38.480Z,99902
2015-02-23T02:36:51.724Z,99893
2015-02-23T02:37:04.787Z,99899
2015-02-23T02:37:17.895Z,99896
2015-02-23T02:37:31.059Z,99899
2015-02-23T02:37:44.115Z,99896
2015-02-23T02:37:57.178Z,99896
2015-02-23T02:38:10.330Z,99893
2015-02-23T02:38:23.476Z,99896
2015-02-23T02:38:36.677Z,99905
2015-02-23T02:38:49.744Z,99896
2015-02-23T02:39:02.842Z,99881
2015-02-23T02:39:16.051Z,99896
2015-02-23T02:39:29.104Z,99890
2015-02-23T02:39:42.183Z,99887
2015-02-23T02:39:55.397Z,99887
2015-02-23T02:40:08.493Z,99893
2015-02-23T02:40:21.522Z,99881
2015-02-23T02:40:34.692Z,99890
2015-02-23T02:40:47.730Z,99878
2015-02-23T02:41:00.883Z,99887
2015-02-23T02:41:13.971Z,99896
2015-02-23T02:41:27.070Z,99887
2015-02-23T02:41:40.246Z,99887
2015-02-23T02:41:53.341Z,99884
2015-02-23T02:42:06.352Z,99884
2015-02-23T02:42:19.565Z,99878
2015-02-23T02:42:32.677Z,99881
2015-02-23T02:42:45.674Z,99896
2015-02-23T02:42:58.837Z,99893
2015-02-23T02:43:12.007Z,99887
2015-02-23T02:43:25.055Z,99881
2015-02-23T02:43:38.206Z,99890
2015-02-23T02:43:51.431Z,99884
2015-02-23T02:44:04.434Z,99893
2015-02-23T02:44:17.520Z,99866
2015-02-23T02:44:30.688Z,99881
2015-02-23T02:44:43.781Z,99875
2015-02-23T02:44:56.843Z,99890
2015-02-23T02:45:10.035Z,99878
2015-02-23T02:45:23.119Z,99872
2015-02-23T02:45:36.186Z,99887
2015-02-23T02:45:49.393Z,99887
2015-02-23T02:46:02.535Z,99878
2015-02-23T02:46:15.617Z,99872
2015-02-23T02:46:28.797Z,99881